Search for airport 
image banner adimage banner ad
image banner ad

DAAD - Bou Saada

Located in Bou Saada, Algeria

ICAO - DAAD, IATA - BUJ

Data provided by Airmate  

General information

Coordinates: N35°19'53" E4°12'16"
Elevation is 1505 feet MSL.
 
View others Airports in M'Sila Province

Operational data

Open for public use
Current time UTC:
Current local time:
Weather
TAF: TAF DAAD 221700Z 2218/2303 12010KT CAVOK
View NOTAMs / SUP AIP / TFR affecting this airport [VIEW]
Communications frequencies: [VIEW]

Runways:

RWY identifierQFULength (ft)Width (ft)SurfaceLDA (ft)
0442°721898ASP
22222°721898

Airport contact information

Address: Bou Saada Algeria

Satellite view of DAAD